Time;durP1;ratioP1;P1;durP2;ratioP2;P2;SDS_P1;SDS_P2;PMS_P1;PMS_P2;Temp;Humidity;BMP_temperature;BMP_pressure;BME280_temperature;BME280_humidity;BME280_pressure;Samples;Min_cycle;Max_cycle;Signal;HPM_P1;HPM_P2
2021/11/30 00:00:44;;;;;;;2.60;2.40;;;0.70;99.90;;;;;;5028844;28;20175;-82
2021/11/30 00:03:10;;;;;;;2.70;2.00;;;0.80;99.90;;;;;;5042201;28;20186;-82
2021/11/30 00:05:36;;;;;;;2.57;2.33;;;0.70;99.90;;;;;;5025969;28;20179;-82
2021/11/30 00:08:03;;;;;;;2.73;2.53;;;0.70;99.90;;;;;;5026554;28;20201;-82
2021/11/30 00:10:49;;;;;;;5.30;2.33;;;0.80;99.90;;;;;;5026884;28;20633;-84
2021/11/30 00:13:21;;;;;;;3.07;2.23;;;0.80;99.90;;;;;;5026085;28;20190;-82
2021/11/30 00:15:55;;;;;;;2.90;2.60;;;0.80;99.90;;;;;;5025621;28;20245;-83
2021/11/30 00:18:22;;;;;;;2.57;2.10;;;0.90;99.90;;;;;;5026327;28;20573;-83
2021/11/30 00:20:48;;;;;;;2.80;2.27;;;0.80;99.90;;;;;;5039100;28;20204;-84
2021/11/30 00:23:15;;;;;;;2.97;2.20;;;0.80;99.90;;;;;;5044854;28;20177;-83
2021/11/30 00:25:42;;;;;;;4.70;2.03;;;0.70;99.90;;;;;;5025292;28;20186;-83
2021/11/30 00:28:08;;;;;;;2.97;2.10;;;0.80;99.90;;;;;;5038320;28;20206;-84
2021/11/30 00:30:36;;;;;;;2.87;2.57;;;0.80;99.90;;;;;;5025805;28;20721;-83
2021/11/30 00:33:03;;;;;;;4.53;2.13;;;0.80;99.90;;;;;;5040236;28;20600;-81
2021/11/30 00:35:30;;;;;;;7.00;2.60;;;0.80;99.90;;;;;;5025853;28;20545;-84
2021/11/30 00:37:56;;;;;;;3.00;2.30;;;0.80;99.90;;;;;;5036637;28;20208;-82
2021/11/30 00:40:33;;;;;;;2.60;2.10;;;2.20;99.90;;;;;;5042638;28;20246;-83
2021/11/30 00:43:05;;;;;;;6.03;2.57;;;0.80;99.90;;;;;;5024377;28;20175;-84
2021/11/30 00:45:48;;;;;;;2.87;2.13;;;0.80;99.90;;;;;;5026544;28;20189;-82
2021/11/30 00:48:21;;;;;;;3.60;2.40;;;0.80;99.90;;;;;;5018025;28;20195;-84
2021/11/30 00:50:51;;;;;;;2.90;2.53;;;0.80;99.90;;;;;;5024792;28;20179;-84
2021/11/30 00:53:17;;;;;;;2.60;2.40;;;0.80;99.90;;;;;;5024381;28;20210;-84
2021/11/30 00:55:43;;;;;;;3.03;2.10;;;0.80;99.90;;;;;;5025540;28;20218;-80
2021/11/30 00:58:09;;;;;;;5.20;2.43;;;0.80;99.90;;;;;;5025890;28;20202;-82
2021/11/30 01:00:38;;;;;;;7.23;3.03;;;0.80;99.90;;;;;;5027373;28;20179;-82
2021/11/30 01:03:06;;;;;;;5.93;2.40;;;0.90;99.90;;;;;;5024832;28;20202;-83
2021/11/30 01:05:39;;;;;;;5.13;2.57;;;0.80;99.90;;;;;;5024617;28;20183;-83
2021/11/30 01:08:11;;;;;;;4.47;2.50;;;0.80;99.90;;;;;;5020011;28;20211;-83
2021/11/30 01:10:37;;;;;;;6.37;2.80;;;0.80;99.90;;;;;;5012886;28;20182;-82
2021/11/30 01:13:04;;;;;;;7.10;2.83;;;0.80;99.90;;;;;;5023318;28;20799;-83
2021/11/30 01:15:30;;;;;;;5.77;2.97;;;0.80;99.90;;;;;;5017830;28;20194;-84
2021/11/30 01:17:59;;;;;;;5.07;2.77;;;0.90;99.90;;;;;;5027938;28;20731;-83
2021/11/30 01:20:26;;;;;;;4.30;2.70;;;0.90;99.90;;;;;;5025270;28;20183;-82
2021/11/30 01:22:52;;;;;;;5.47;2.70;;;2.00;99.90;;;;;;5025061;28;20171;-82
2021/11/30 01:25:18;;;;;;;3.47;2.73;;;0.90;99.90;;;;;;5025475;28;20259;-84
2021/11/30 01:27:47;;;;;;;5.47;2.60;;;0.50;99.90;;;;;;5028103;28;20708;-82
2021/11/30 01:30:14;;;;;;;6.10;2.60;;;0.90;99.90;;;;;;5043173;28;20175;-82
2021/11/30 01:32:42;;;;;;;5.10;2.30;;;0.90;99.90;;;;;;5025603;28;20643;-82
2021/11/30 01:35:09;;;;;;;3.47;2.30;;;0.90;99.90;;;;;;5023482;28;20217;-83
2021/11/30 01:37:37;;;;;;;4.13;2.57;;;0.90;99.90;;;;;;5025921;28;20218;-82
2021/11/30 01:40:07;;;;;;;3.43;2.40;;;0.90;99.90;;;;;;5026857;28;20190;-82
2021/11/30 01:42:34;;;;;;;4.00;2.10;;;0.90;99.90;;;;;;5019039;28;20174;-81
2021/11/30 01:45:06;;;;;;;3.87;2.73;;;0.90;99.90;;;;;;5030265;28;20167;-83
2021/11/30 01:50:04;;;;;;;6.40;3.47;;;1.00;99.90;;;;;;5022852;28;20682;-82
2021/11/30 01:52:40;;;;;;;3.20;2.03;;;0.90;99.90;;;;;;5021794;28;20172;-83
2021/11/30 01:55:07;;;;;;;5.63;2.40;;;1.00;99.90;;;;;;5011441;28;20222;-82
2021/11/30 01:57:33;;;;;;;3.77;2.50;;;0.90;99.90;;;;;;5022624;28;20512;-81
2021/11/30 01:59:59;;;;;;;2.50;2.20;;;0.90;99.90;;;;;;5023880;28;20183;-81
2021/11/30 02:02:27;;;;;;;3.33;2.47;;;1.00;99.90;;;;;;5025978;28;20176;-83
2021/11/30 02:04:53;;;;;;;4.30;2.40;;;1.00;99.90;;;;;;5025208;28;20184;-83
2021/11/30 02:07:19;;;;;;;3.33;1.97;;;1.10;99.90;;;;;;5029077;28;20284;-81
2021/11/30 02:09:45;;;;;;;8.53;2.20;;;1.00;99.90;;;;;;5012928;28;20183;-82
2021/11/30 02:12:12;;;;;;;4.03;2.00;;;0.90;99.90;;;;;;5017715;28;20183;-83
2021/11/30 02:14:45;;;;;;;2.87;2.40;;;1.00;99.90;;;;;;5021677;28;20266;-83
2021/11/30 02:17:13;;;;;;;3.97;2.77;;;0.90;99.90;;;;;;5024349;28;20729;-82
2021/11/30 02:19:49;;;;;;;7.40;2.30;;;0.90;99.90;;;;;;5030146;28;20616;-84
2021/11/30 02:22:15;;;;;;;3.50;2.00;;;0.90;99.90;;;;;;5025158;28;20178;-81
2021/11/30 02:24:42;;;;;;;6.53;2.70;;;0.90;99.90;;;;;;5033643;28;20177;-80
2021/11/30 02:27:08;;;;;;;2.87;2.40;;;0.90;99.90;;;;;;5026294;28;20217;-83
2021/11/30 02:29:33;;;;;;;3.60;2.30;;;0.80;99.90;;;;;;5026975;28;20190;-80
2021/11/30 02:32:00;;;;;;;3.13;2.30;;;1.40;99.90;;;;;;5026831;28;20171;-82
2021/11/30 02:34:26;;;;;;;4.17;2.23;;;0.90;99.90;;;;;;5026099;28;20182;-81
2021/11/30 02:36:53;;;;;;;3.47;2.80;;;0.90;99.90;;;;;;5024694;28;20217;-81
2021/11/30 02:39:22;;;;;;;5.20;2.40;;;0.90;99.90;;;;;;5013645;28;20167;-82
2021/11/30 02:41:51;;;;;;;4.47;2.20;;;0.90;99.90;;;;;;5015829;28;20264;-82
2021/11/30 02:44:19;;;;;;;4.27;2.27;;;1.00;99.90;;;;;;5022992;28;20702;-82
2021/11/30 02:46:48;;;;;;;3.87;1.97;;;1.00;99.90;;;;;;5027366;28;20202;-81
2021/11/30 02:49:19;;;;;;;3.53;2.27;;;1.00;99.90;;;;;;5018278;28;20171;-82
2021/11/30 02:51:50;;;;;;;3.67;2.40;;;1.00;99.90;;;;;;5022754;28;20179;-82
2021/11/30 02:54:19;;;;;;;5.10;1.97;;;1.10;99.90;;;;;;5011003;28;20179;-81
2021/11/30 02:56:53;;;;;;;4.23;2.30;;;1.10;99.90;;;;;;5025976;28;20207;-82
2021/11/30 02:59:21;;;;;;;2.73;2.10;;;1.10;99.90;;;;;;5031863;28;20536;-81
2021/11/30 03:02:00;;;;;;;3.73;1.90;;;1.10;99.90;;;;;;5048815;28;20179;-82
2021/11/30 03:04:27;;;;;;;2.53;2.00;;;1.10;99.90;;;;;;5022144;28;20634;-80
2021/11/30 03:06:54;;;;;;;3.67;1.53;;;1.00;99.90;;;;;;5020006;28;20699;-81
2021/11/30 03:09:20;;;;;;;4.40;2.00;;;1.00;99.90;;;;;;5021261;28;20254;-81
2021/11/30 03:11:46;;;;;;;3.07;1.87;;;1.00;99.90;;;;;;5021116;28;20174;-80
2021/11/30 03:14:12;;;;;;;8.97;2.23;;;1.00;99.90;;;;;;5021563;28;20205;-81
2021/11/30 03:16:39;;;;;;;6.17;1.97;;;1.00;99.90;;;;;;5025191;28;20264;-80
2021/11/30 03:19:06;;;;;;;2.63;1.80;;;1.00;99.90;;;;;;5030979;28;20185;-81
2021/11/30 03:21:32;;;;;;;4.47;2.10;;;1.30;99.90;;;;;;5020879;28;20653;-80
2021/11/30 03:23:58;;;;;;;3.93;1.83;;;1.00;99.90;;;;;;5021750;28;20178;-81
2021/11/30 03:26:23;;;;;;;2.20;1.70;;;1.00;99.90;;;;;;5024222;28;20269;-83
2021/11/30 03:28:49;;;;;;;4.80;2.23;;;1.30;99.90;;;;;;5024289;28;20213;-83
2021/11/30 03:31:34;;;;;;;6.47;2.27;;;0.90;99.90;;;;;;5025150;28;20186;-80
2021/11/30 03:34:05;;;;;;;1.93;1.50;;;0.90;99.90;;;;;;5033346;28;20158;-82
2021/11/30 03:36:32;;;;;;;2.43;1.90;;;0.90;99.90;;;;;;5041496;28;20221;-82
2021/11/30 03:38:59;;;;;;;6.77;2.13;;;0.90;99.90;;;;;;5021496;28;20175;-81
2021/11/30 03:41:28;;;;;;;2.70;2.00;;;0.90;99.90;;;;;;5019961;28;20669;-81
2021/11/30 03:43:54;;;;;;;3.60;1.70;;;0.90;99.90;;;;;;5019753;28;20652;-83
2021/11/30 03:46:20;;;;;;;3.00;1.60;;;0.90;99.90;;;;;;5019258;28;20191;-83
2021/11/30 03:48:45;;;;;;;3.23;1.90;;;0.90;99.90;;;;;;5019994;28;20183;-83
2021/11/30 03:51:11;;;;;;;5.33;1.70;;;0.90;99.90;;;;;;5020554;28;20666;-81
2021/11/30 03:53:37;;;;;;;3.33;1.70;;;0.90;99.90;;;;;;5020429;28;20170;-82
2021/11/30 03:56:06;;;;;;;4.33;1.80;;;1.70;99.90;;;;;;5021209;28;20206;-82
2021/11/30 03:58:32;;;;;;;4.43;2.07;;;0.90;99.90;;;;;;5020517;28;20607;-81
2021/11/30 04:00:57;;;;;;;4.47;1.77;;;1.00;99.90;;;;;;5021760;28;20269;-83
2021/11/30 04:03:25;;;;;;;5.10;1.50;;;0.90;99.90;;;;;;5021963;28;20241;-81
2021/11/30 04:05:51;;;;;;;5.03;1.80;;;0.90;99.90;;;;;;5021312;28;20181;-82
2021/11/30 04:08:17;;;;;;;5.40;1.70;;;0.90;99.90;;;;;;5019721;28;20198;-82
2021/11/30 04:10:43;;;;;;;3.00;1.73;;;1.00;99.90;;;;;;5021592;28;20303;-83
2021/11/30 04:13:09;;;;;;;4.43;1.40;;;1.00;99.90;;;;;;5026082;28;20185;-80
2021/11/30 04:15:35;;;;;;;4.27;1.60;;;0.90;99.90;;;;;;5026875;28;20191;-82
2021/11/30 04:18:01;;;;;;;1.90;1.67;;;0.90;99.90;;;;;;5023029;28;20199;-81
2021/11/30 04:20:27;;;;;;;1.90;1.20;;;1.00;99.90;;;;;;5022603;28;20170;-82
2021/11/30 04:22:52;;;;;;;2.30;2.10;;;0.90;99.90;;;;;;5019507;28;20549;-82
2021/11/30 04:25:18;;;;;;;1.20;1.10;;;0.90;99.90;;;;;;5021237;28;20221;-81
2021/11/30 04:27:44;;;;;;;4.47;1.70;;;0.90;99.90;;;;;;5021945;28;20199;-80
2021/11/30 04:30:11;;;;;;;3.83;2.07;;;0.90;99.90;;;;;;5019979;28;20526;-82
2021/11/30 04:32:38;;;;;;;2.43;1.90;;;0.90;99.90;;;;;;5023529;28;20194;-82
2021/11/30 04:35:05;;;;;;;3.53;1.57;;;0.90;99.90;;;;;;5017715;28;20198;-82
2021/11/30 04:37:31;;;;;;;2.53;1.77;;;0.90;99.90;;;;;;4999308;28;20243;-81
2021/11/30 04:39:56;;;;;;;3.07;1.30;;;0.90;99.90;;;;;;5010459;28;20183;-82
2021/11/30 04:42:27;;;;;;;2.73;1.30;;;0.90;99.90;;;;;;5017222;28;20865;-82
2021/11/30 04:45:08;;;;;;;4.00;1.40;;;0.90;99.90;;;;;;5009606;28;20168;-81
2021/11/30 04:47:39;;;;;;;5.77;1.70;;;0.90;99.90;;;;;;5025322;28;20201;-82
2021/11/30 04:50:28;;;;;;;5.00;1.60;;;0.90;99.90;;;;;;5023432;28;20648;-82
2021/11/30 04:52:56;;;;;;;7.50;1.63;;;0.90;99.90;;;;;;5009627;28;20266;-81
2021/11/30 04:55:26;;;;;;;6.57;1.40;;;0.90;99.90;;;;;;5016163;28;20210;-81
2021/11/30 04:58:04;;;;;;;2.33;1.43;;;0.90;99.90;;;;;;5023581;28;20226;-82
2021/11/30 05:00:32;;;;;;;2.40;1.60;;;0.90;99.90;;;;;;5024923;28;20255;-81
2021/11/30 05:02:58;;;;;;;1.47;1.27;;;0.90;99.90;;;;;;5029426;28;20177;-82
2021/11/30 05:05:23;;;;;;;1.43;1.10;;;0.90;99.90;;;;;;5027298;28;20202;-82
2021/11/30 05:07:49;;;;;;;2.87;1.13;;;0.90;99.90;;;;;;5026827;28;20198;-84
2021/11/30 05:10:18;;;;;;;1.70;1.53;;;1.00;99.90;;;;;;5025450;28;20185;-80
2021/11/30 05:12:47;;;;;;;3.50;1.23;;;1.00;99.90;;;;;;5028109;28;20179;-83
2021/11/30 05:15:14;;;;;;;2.97;1.20;;;1.00;99.90;;;;;;5026334;28;20248;-83
2021/11/30 05:17:41;;;;;;;1.40;1.27;;;0.90;99.90;;;;;;5026309;28;20195;-81
2021/11/30 05:20:08;;;;;;;2.57;1.27;;;0.90;99.90;;;;;;5026740;28;20178;-84
2021/11/30 05:22:34;;;;;;;5.57;1.10;;;1.00;99.90;;;;;;5025953;28;20178;-83
2021/11/30 05:25:00;;;;;;;3.13;1.30;;;1.00;99.90;;;;;;5028097;28;20179;-81
2021/11/30 05:27:27;;;;;;;2.53;1.00;;;1.00;99.90;;;;;;5026060;28;20210;-82
2021/11/30 05:29:52;;;;;;;1.77;1.10;;;1.00;99.90;;;;;;5026728;28;20552;-82
2021/11/30 05:32:19;;;;;;;2.83;0.93;;;0.90;99.90;;;;;;5026713;28;20230;-83
2021/11/30 05:34:46;;;;;;;2.50;1.40;;;1.00;99.90;;;;;;5027428;28;20178;-82
2021/11/30 05:37:15;;;;;;;1.60;1.03;;;1.00;99.90;;;;;;5028801;28;20725;-83
2021/11/30 05:39:41;;;;;;;2.30;1.00;;;1.00;99.90;;;;;;5030116;28;20183;-82
2021/11/30 05:42:07;;;;;;;2.27;0.97;;;1.10;99.90;;;;;;5023925;28;20178;-84
2021/11/30 05:44:34;;;;;;;1.20;1.10;;;1.10;99.90;;;;;;5027967;28;20266;-81
2021/11/30 05:47:00;;;;;;;1.20;1.00;;;1.80;99.90;;;;;;5025714;28;20538;-79
2021/11/30 05:49:25;;;;;;;1.60;1.20;;;1.00;99.90;;;;;;5027635;28;20238;-83
2021/11/30 05:51:53;;;;;;;5.40;1.37;;;1.00;99.90;;;;;;5024780;28;20179;-83
2021/11/30 05:54:19;;;;;;;2.57;1.13;;;1.00;99.90;;;;;;5027095;28;20194;-82
2021/11/30 05:56:44;;;;;;;4.23;1.63;;;1.10;99.90;;;;;;5025124;28;20910;-83
2021/11/30 05:59:13;;;;;;;3.43;1.60;;;1.10;99.90;;;;;;5024376;28;20171;-81
2021/11/30 06:01:38;;;;;;;3.10;1.70;;;1.10;99.90;;;;;;5030122;28;20179;-82
2021/11/30 06:04:04;;;;;;;3.13;1.70;;;1.10;99.90;;;;;;5025759;28;20171;-82
2021/11/30 06:06:33;;;;;;;4.97;1.93;;;1.10;99.90;;;;;;5030172;28;20199;-83
2021/11/30 06:08:59;;;;;;;3.17;1.93;;;1.10;99.90;;;;;;5027096;28;20182;-82
2021/11/30 06:11:26;;;;;;;3.07;1.43;;;1.10;99.90;;;;;;5027096;28;20179;-81
2021/11/30 06:13:52;;;;;;;1.67;1.40;;;2.40;99.90;;;;;;5029157;28;20619;-81
2021/11/30 06:16:19;;;;;;;1.90;1.70;;;1.10;99.90;;;;;;5029333;28;20582;-83
2021/11/30 06:18:46;;;;;;;2.53;1.77;;;1.40;99.90;;;;;;5031667;28;20171;-80
2021/11/30 06:21:17;;;;;;;3.30;2.10;;;1.10;99.90;;;;;;5027835;28;20600;-83
2021/11/30 06:23:44;;;;;;;6.27;1.87;;;1.10;99.90;;;;;;5026551;28;20221;-81
2021/11/30 06:26:10;;;;;;;3.13;2.43;;;1.10;99.90;;;;;;5028532;28;20250;-80
2021/11/30 06:28:37;;;;;;;2.67;2.20;;;1.10;99.90;;;;;;5027843;28;20181;-82
2021/11/30 06:31:05;;;;;;;3.47;2.07;;;1.10;99.90;;;;;;5027053;28;20286;-81
2021/11/30 06:33:31;;;;;;;3.27;2.37;;;1.10;99.90;;;;;;5024994;28;20176;-83
2021/11/30 06:36:01;;;;;;;3.20;2.33;;;1.10;99.90;;;;;;5011941;28;20246;-81
2021/11/30 06:38:30;;;;;;;3.87;2.63;;;1.10;99.90;;;;;;5017042;28;20203;-82
2021/11/30 06:40:56;;;;;;;3.97;2.70;;;1.10;99.90;;;;;;5011218;28;20175;-80
2021/11/30 06:43:22;;;;;;;3.60;2.23;;;1.10;99.90;;;;;;5022313;28;20175;-81
2021/11/30 06:45:48;;;;;;;4.90;2.40;;;1.10;99.90;;;;;;5015888;28;20202;-83
2021/11/30 06:48:18;;;;;;;2.50;2.30;;;1.10;99.90;;;;;;5006643;28;20203;-80
2021/11/30 06:50:44;;;;;;;6.90;1.97;;;1.10;99.90;;;;;;5022070;28;20187;-83
2021/11/30 06:53:10;;;;;;;3.87;2.30;;;1.10;99.90;;;;;;5023307;28;20179;-82
2021/11/30 06:55:39;;;;;;;3.90;2.13;;;1.10;99.90;;;;;;5022845;28;20195;-80
2021/11/30 06:58:10;;;;;;;9.10;3.03;;;1.10;99.90;;;;;;5023957;28;20198;-81
2021/11/30 07:00:35;;;;;;;5.20;2.53;;;1.10;99.90;;;;;;5020529;28;20186;-83
2021/11/30 07:03:01;;;;;;;5.23;2.30;;;1.20;99.90;;;;;;5025333;28;20175;-83
2021/11/30 07:05:32;;;;;;;3.70;2.60;;;1.20;99.90;;;;;;5023236;28;20171;-81
2021/11/30 07:10:36;;;;;;;2.80;2.50;;;2.20;99.90;;;;;;5024742;28;20183;-83
2021/11/30 07:13:27;;;;;;;3.93;2.47;;;1.20;99.90;;;;;;5023083;28;20179;-83
2021/11/30 07:15:55;;;;;;;2.80;1.83;;;1.20;99.90;;;;;;5022836;28;20203;-81
2021/11/30 07:18:21;;;;;;;3.53;2.63;;;1.20;99.90;;;;;;5020051;28;20195;-81
2021/11/30 07:20:48;;;;;;;4.23;2.50;;;1.20;99.90;;;;;;5020343;28;20186;-80
2021/11/30 07:23:14;;;;;;;3.67;2.20;;;1.20;99.90;;;;;;5021806;28;20179;-81
2021/11/30 07:25:40;;;;;;;2.40;2.03;;;1.20;99.90;;;;;;5005190;28;20194;-82
2021/11/30 07:28:06;;;;;;;2.13;1.93;;;1.20;99.90;;;;;;5013679;28;20202;-80
2021/11/30 07:30:33;;;;;;;3.73;2.13;;;1.30;99.90;;;;;;5020073;28;20167;-82
2021/11/30 07:33:00;;;;;;;3.90;2.70;;;1.20;99.90;;;;;;5023690;28;20532;-81
2021/11/30 07:35:29;;;;;;;6.50;2.27;;;1.20;99.90;;;;;;5021139;28;20199;-78
2021/11/30 07:38:01;;;;;;;3.27;2.27;;;1.30;99.90;;;;;;5058091;22;20222;-79
2021/11/30 07:40:33;;;;;;;2.60;2.40;;;1.30;99.90;;;;;;5039161;28;20638;-81
2021/11/30 07:42:59;;;;;;;1.80;1.70;;;1.20;99.90;;;;;;5046783;28;20238;-80
2021/11/30 07:45:25;;;;;;;2.87;2.40;;;1.30;99.90;;;;;;5045971;28;20190;-80
2021/11/30 07:47:51;;;;;;;2.47;2.27;;;1.20;99.90;;;;;;5031362;28;20207;-82
2021/11/30 07:50:17;;;;;;;2.97;1.80;;;1.20;99.90;;;;;;5024249;28;20720;-81
2021/11/30 07:52:44;;;;;;;4.60;2.10;;;1.20;99.90;;;;;;5030864;28;20202;-81
2021/11/30 07:55:13;;;;;;;2.17;1.80;;;1.20;99.90;;;;;;5024776;28;20210;-81
2021/11/30 07:57:40;;;;;;;3.57;2.10;;;1.20;99.90;;;;;;5026809;28;20587;-80
2021/11/30 08:00:12;;;;;;;1.80;1.70;;;1.30;99.90;;;;;;5025194;28;20182;-81
2021/11/30 08:02:38;;;;;;;2.97;2.20;;;1.20;99.90;;;;;;5025845;28;20207;-81
2021/11/30 08:05:06;;;;;;;2.90;1.80;;;1.20;99.90;;;;;;5028356;28;20185;-80
2021/11/30 08:07:32;;;;;;;3.73;2.23;;;1.20;99.90;;;;;;5051119;28;20580;-82
2021/11/30 08:09:59;;;;;;;5.30;2.57;;;1.20;99.90;;;;;;5042248;28;20265;-81
2021/11/30 08:12:25;;;;;;;2.07;1.67;;;1.30;99.90;;;;;;5032646;28;20170;-81
2021/11/30 08:14:50;;;;;;;17.53;2.30;;;1.20;99.90;;;;;;5030072;28;20189;-81
2021/11/30 08:17:18;;;;;;;3.37;1.90;;;1.70;99.90;;;;;;5029339;28;20183;-82
2021/11/30 08:19:46;;;;;;;4.53;1.77;;;1.30;99.90;;;;;;5027977;28;20243;-81
2021/11/30 08:22:12;;;;;;;2.53;2.17;;;1.20;99.90;;;;;;5029867;28;20226;-81
2021/11/30 08:24:38;;;;;;;3.33;2.00;;;1.20;99.90;;;;;;5027529;28;20175;-80
2021/11/30 08:27:06;;;;;;;4.07;2.13;;;1.90;99.90;;;;;;5027235;28;20290;-80
2021/11/30 08:29:33;;;;;;;4.83;1.87;;;1.30;99.90;;;;;;5027166;28;20175;-81
2021/11/30 08:31:59;;;;;;;2.93;1.50;;;1.30;99.90;;;;;;5027349;28;20190;-81
2021/11/30 08:34:25;;;;;;;2.20;1.80;;;1.20;99.90;;;;;;5028033;28;20181;-81
2021/11/30 08:36:51;;;;;;;3.90;2.63;;;1.20;99.90;;;;;;5026085;28;20218;-81
2021/11/30 08:39:17;;;;;;;2.80;2.43;;;1.30;99.90;;;;;;5039932;28;20201;-81
2021/11/30 08:41:43;;;;;;;2.37;2.07;;;1.30;99.90;;;;;;5025601;28;20309;-81
2021/11/30 08:44:09;;;;;;;5.87;2.10;;;1.30;99.90;;;;;;5027454;28;20182;-80
2021/11/30 08:46:38;;;;;;;4.17;2.33;;;1.20;99.90;;;;;;5028993;28;20214;-79
2021/11/30 08:49:04;;;;;;;2.90;2.10;;;1.30;99.90;;;;;;5028637;28;20553;-80
2021/11/30 08:51:30;;;;;;;6.43;2.20;;;2.20;99.90;;;;;;5027080;28;20194;-80
2021/11/30 08:53:56;;;;;;;3.17;1.93;;;1.30;99.90;;;;;;5023712;28;20186;-81
2021/11/30 08:56:29;;;;;;;3.67;2.43;;;1.40;99.90;;;;;;5023129;28;20266;-79
2021/11/30 08:58:58;;;;;;;4.13;2.30;;;1.30;99.90;;;;;;5021531;28;20174;-80
2021/11/30 09:01:24;;;;;;;2.30;1.97;;;1.00;99.90;;;;;;5021316;28;20187;-80
2021/11/30 09:03:50;;;;;;;3.50;2.40;;;1.40;99.90;;;;;;5025211;28;20183;-81
2021/11/30 09:06:15;;;;;;;3.07;2.13;;;1.40;99.90;;;;;;5026479;28;20187;-81
2021/11/30 09:08:44;;;;;;;2.93;2.13;;;1.40;99.90;;;;;;5023601;28;20187;-81
2021/11/30 09:11:11;;;;;;;1.93;1.80;;;1.40;99.90;;;;;;5022222;28;20198;-80
2021/11/30 09:13:38;;;;;;;2.73;1.90;;;1.40;99.90;;;;;;5023071;28;20274;-80
2021/11/30 09:16:04;;;;;;;2.27;1.67;;;1.40;99.90;;;;;;5013445;28;20208;-80
2021/11/30 09:18:30;;;;;;;2.60;1.40;;;1.50;99.90;;;;;;5022502;28;20207;-81
2021/11/30 09:21:00;;;;;;;2.43;1.60;;;1.50;99.90;;;;;;5022510;28;20176;-78
2021/11/30 09:23:28;;;;;;;2.47;1.90;;;1.40;99.90;;;;;;5033001;28;20195;-79
2021/11/30 09:25:56;;;;;;;3.87;1.67;;;1.50;99.90;;;;;;5023423;28;20179;-80
2021/11/30 09:28:22;;;;;;;2.93;2.03;;;1.50;99.90;;;;;;5023599;28;20211;-81
2021/11/30 09:30:49;;;;;;;3.53;1.70;;;1.50;99.90;;;;;;5021435;28;20218;-81
2021/11/30 09:33:15;;;;;;;1.97;1.40;;;2.00;99.90;;;;;;5025911;28;20214;-80
2021/11/30 09:35:41;;;;;;;4.70;1.60;;;1.60;99.90;;;;;;5010216;28;20215;-79
2021/11/30 09:38:07;;;;;;;1.97;1.80;;;1.60;99.90;;;;;;5020171;28;20215;-79
2021/11/30 09:40:34;;;;;;;1.87;1.67;;;1.60;99.90;;;;;;5026226;28;20194;-79
2021/11/30 09:43:00;;;;;;;3.13;1.63;;;1.30;99.90;;;;;;5019237;28;20239;-79
2021/11/30 09:45:32;;;;;;;2.90;1.67;;;1.70;99.90;;;;;;5028516;28;20190;-79
2021/11/30 09:47:59;;;;;;;2.13;1.50;;;1.70;99.90;;;;;;5027513;28;20295;-82
2021/11/30 09:50:28;;;;;;;2.27;1.70;;;1.70;99.90;;;;;;5025089;28;20183;-78
2021/11/30 09:52:56;;;;;;;4.80;2.10;;;2.70;99.90;;;;;;5039728;28;20554;-82
2021/11/30 09:55:23;;;;;;;2.20;1.57;;;1.80;99.90;;;;;;5022090;28;20197;-81
2021/11/30 09:57:54;;;;;;;2.77;1.70;;;1.80;99.90;;;;;;5029421;28;20198;-80
2021/11/30 10:00:22;;;;;;;2.73;1.80;;;1.80;99.90;;;;;;5029996;28;20180;-80
2021/11/30 10:02:49;;;;;;;6.03;1.77;;;2.10;99.90;;;;;;5027015;28;20215;-81
2021/11/30 10:05:17;;;;;;;9.00;2.30;;;1.90;99.90;;;;;;5029776;28;20175;-80
2021/11/30 10:07:48;;;;;;;2.17;1.53;;;1.80;99.90;;;;;;5029561;28;20222;-81
2021/11/30 10:10:17;;;;;;;2.60;2.07;;;1.80;99.90;;;;;;5023424;28;20179;-80
2021/11/30 10:13:05;;;;;;;2.53;1.90;;;1.80;99.90;;;;;;5027331;28;20182;-80
2021/11/30 10:15:53;;;;;;;4.67;2.17;;;1.80;99.90;;;;;;5027342;28;20211;-81
2021/11/30 10:18:34;;;;;;;3.30;1.93;;;1.90;99.90;;;;;;5019655;28;20188;-80
2021/11/30 10:21:03;;;;;;;3.80;2.63;;;1.90;99.90;;;;;;5026079;28;20528;-80
2021/11/30 10:23:31;;;;;;;3.43;2.33;;;1.90;99.90;;;;;;5021288;28;20238;-79
2021/11/30 10:26:03;;;;;;;2.23;1.80;;;1.90;99.90;;;;;;5028492;28;20171;-82
2021/11/30 10:28:31;;;;;;;2.60;2.30;;;1.90;99.90;;;;;;5028611;28;20203;-81
2021/11/30 10:30:56;;;;;;;2.20;2.00;;;1.90;99.90;;;;;;5027076;28;20175;-80
2021/11/30 10:33:25;;;;;;;2.70;1.93;;;2.00;99.90;;;;;;5028109;28;20181;-82
2021/11/30 10:35:54;;;;;;;3.07;1.97;;;2.00;99.90;;;;;;5028200;28;20716;-82
2021/11/30 10:38:22;;;;;;;2.40;2.17;;;2.00;99.90;;;;;;5040287;28;20206;-81
2021/11/30 10:40:48;;;;;;;2.70;2.50;;;2.00;99.90;;;;;;5029238;28;20190;-81
2021/11/30 10:43:17;;;;;;;2.07;1.87;;;2.00;99.90;;;;;;5027969;28;20179;-82
2021/11/30 10:45:46;;;;;;;5.00;2.10;;;2.00;99.90;;;;;;5027524;28;20654;-82
2021/11/30 10:48:22;;;;;;;2.10;1.90;;;2.00;99.90;;;;;;5026890;28;20195;-79
2021/11/30 10:50:50;;;;;;;2.83;1.83;;;2.00;99.90;;;;;;5026472;28;20196;-80
2021/11/30 10:53:26;;;;;;;4.30;1.90;;;2.40;99.90;;;;;;5028851;28;20266;-79
2021/11/30 10:55:56;;;;;;;2.37;2.10;;;2.00;99.90;;;;;;5019610;28;20198;-79
2021/11/30 10:58:38;;;;;;;2.33;2.13;;;2.10;99.90;;;;;;5029325;28;20282;-80
2021/11/30 11:01:15;;;;;;;3.30;2.07;;;2.10;99.90;;;;;;5028904;28;20179;-81
2021/11/30 11:03:41;;;;;;;2.03;1.77;;;2.10;99.90;;;;;;5011071;28;20175;-81
2021/11/30 11:09:02;;;;;;;3.23;2.53;;;2.10;99.90;;;;;;5016280;28;20246;-79
2021/11/30 11:11:33;;;;;;;5.43;2.10;;;2.20;99.90;;;;;;5027742;28;20329;-80
2021/11/30 11:14:00;;;;;;;1.93;1.57;;;2.20;99.90;;;;;;5024817;28;20267;-80
2021/11/30 11:16:34;;;;;;;2.40;1.90;;;3.10;99.90;;;;;;5027800;28;20577;-80
2021/11/30 11:19:05;;;;;;;3.07;1.90;;;2.20;99.90;;;;;;5024571;28;20177;-81
2021/11/30 11:21:35;;;;;;;2.30;1.87;;;2.30;99.90;;;;;;5019289;28;20203;-80
2021/11/30 11:24:05;;;;;;;4.90;2.90;;;2.30;99.90;;;;;;5028477;28;20585;-80
2021/11/30 11:26:35;;;;;;;3.00;2.07;;;2.40;99.90;;;;;;5029103;28;20674;-80
2021/11/30 11:29:06;;;;;;;3.23;1.70;;;2.40;99.90;;;;;;5021405;28;20184;-80
2021/11/30 11:31:33;;;;;;;3.47;1.70;;;2.30;99.90;;;;;;5023512;28;20219;-79
2021/11/30 11:34:01;;;;;;;3.77;2.10;;;2.50;99.90;;;;;;5024697;28;20183;-82
2021/11/30 11:36:28;;;;;;;2.83;1.50;;;2.90;99.90;;;;;;5025594;28;20210;-81
2021/11/30 11:38:57;;;;;;;2.20;1.77;;;2.50;99.90;;;;;;5027088;28;20183;-80
2021/11/30 11:41:28;;;;;;;5.80;1.57;;;2.50;99.90;;;;;;5026973;28;20670;-80
2021/11/30 11:43:55;;;;;;;3.30;1.70;;;2.60;99.90;;;;;;5031974;28;20167;-78
2021/11/30 11:46:21;;;;;;;4.77;1.90;;;2.60;99.90;;;;;;5028235;28;20185;-80
2021/11/30 11:48:56;;;;;;;5.90;1.70;;;2.60;99.90;;;;;;5025972;28;20185;-80
2021/11/30 11:51:23;;;;;;;3.00;1.80;;;2.60;99.90;;;;;;5024471;28;20660;-81
2021/11/30 11:53:53;;;;;;;2.70;2.30;;;2.50;99.90;;;;;;5024633;28;20179;-79
2021/11/30 11:56:23;;;;;;;2.40;1.77;;;2.50;99.90;;;;;;5026488;28;20337;-81
2021/11/30 11:59:05;;;;;;;2.43;1.70;;;2.50;99.90;;;;;;5021756;28;20536;-81
2021/11/30 12:01:31;;;;;;;2.20;2.00;;;2.60;99.90;;;;;;5020840;28;20171;-80
2021/11/30 12:04:08;;;;;;;2.40;1.80;;;2.50;99.90;;;;;;5034666;28;20198;-79
2021/11/30 12:06:36;;;;;;;2.70;1.97;;;2.60;99.90;;;;;;5016341;28;20256;-80
2021/11/30 12:09:15;;;;;;;2.40;1.53;;;2.60;99.90;;;;;;5020226;28;20259;-81
2021/11/30 12:11:44;;;;;;;4.17;2.00;;;3.30;99.90;;;;;;5038065;28;20196;-80
2021/11/30 12:14:14;;;;;;;2.60;2.03;;;2.60;99.90;;;;;;5022403;28;20186;-82
2021/11/30 12:17:11;;;;;;;1.63;1.50;;;2.60;99.90;;;;;;5016412;28;20239;-80
2021/11/30 12:19:40;;;;;;;2.30;1.80;;;2.70;99.90;;;;;;5012918;28;20191;-81
2021/11/30 12:22:07;;;;;;;1.63;1.27;;;2.70;99.90;;;;;;5026633;28;20709;-82
2021/11/30 12:24:51;;;;;;;3.40;2.03;;;2.70;99.90;;;;;;5021415;28;20262;-80
2021/11/30 12:27:17;;;;;;;2.33;1.73;;;2.60;99.90;;;;;;5013717;28;20219;-80
2021/11/30 12:29:43;;;;;;;2.33;1.93;;;2.70;99.90;;;;;;5021689;28;20206;-82
2021/11/30 12:32:22;;;;;;;3.10;2.00;;;2.70;99.90;;;;;;5023740;28;20198;-80
2021/11/30 12:34:49;;;;;;;4.10;1.70;;;2.70;99.90;;;;;;5040595;28;20181;-81
2021/11/30 12:37:22;;;;;;;4.77;2.03;;;2.70;99.90;;;;;;5015205;28;20212;-80
2021/11/30 12:40:00;;;;;;;4.47;1.70;;;2.70;99.90;;;;;;5022641;28;20175;-82
2021/11/30 12:42:27;;;;;;;1.97;1.70;;;2.70;99.90;;;;;;5021971;28;20183;-80
2021/11/30 12:44:54;;;;;;;2.20;1.70;;;2.70;99.90;;;;;;5022848;28;20175;-81
2021/11/30 12:47:24;;;;;;;5.10;1.87;;;2.60;99.90;;;;;;5032925;28;20207;-81
2021/11/30 12:49:50;;;;;;;2.63;1.80;;;2.60;99.90;;;;;;5028390;28;20222;-80
2021/11/30 12:52:19;;;;;;;5.33;1.93;;;2.60;99.90;;;;;;5020021;28;20183;-80
2021/11/30 12:54:54;;;;;;;2.73;1.60;;;2.60;99.90;;;;;;5012600;28;20179;-80
2021/11/30 12:57:28;;;;;;;2.47;1.90;;;2.60;99.90;;;;;;5016258;28;20201;-81
2021/11/30 12:59:57;;;;;;;2.17;1.57;;;2.60;99.90;;;;;;5018069;28;20190;-81
2021/11/30 13:02:28;;;;;;;2.27;1.30;;;2.60;99.90;;;;;;5021753;28;20192;-81
2021/11/30 13:05:07;;;;;;;2.23;1.83;;;2.60;99.90;;;;;;5018956;28;20183;-81
2021/11/30 13:07:36;;;;;;;2.20;2.00;;;2.60;99.90;;;;;;5021739;28;20203;-82
2021/11/30 13:10:04;;;;;;;4.33;2.20;;;2.60;99.90;;;;;;5020518;28;20275;-81
2021/11/30 13:12:32;;;;;;;3.70;1.80;;;2.60;99.90;;;;;;5026249;28;20179;-81